Time;durP1;ratioP1;P1;durP2;ratioP2;P2;SDS_P1;SDS_P2;PMS_P1;PMS_P2;Temp;Humidity;BMP_temperature;BMP_pressure;BME280_temperature;BME280_humidity;BME280_pressure;Samples;Min_cycle;Max_cycle;Signal;HPM_P1;HPM_P2
2022/07/29 00:00:29;;;;;;;4.90;3.38;;;20.50;99.90;;;;;;5013761;28;20310;-60
2022/07/29 00:02:56;;;;;;;4.53;3.78;;;20.50;99.90;;;;;;5013620;28;20257;-60
2022/07/29 00:05:23;;;;;;;3.75;3.35;;;20.50;99.90;;;;;;5013894;28;20219;-60
2022/07/29 00:07:49;;;;;;;4.55;3.20;;;20.50;99.90;;;;;;5013799;28;20207;-60
2022/07/29 00:10:18;;;;;;;4.45;3.17;;;20.50;99.90;;;;;;5013886;28;20207;-60
2022/07/29 00:12:44;;;;;;;3.88;3.25;;;20.60;99.90;;;;;;5013623;28;20206;-60
2022/07/29 00:15:11;;;;;;;4.57;3.60;;;20.60;99.90;;;;;;5013349;28;20202;-60
2022/07/29 00:17:38;;;;;;;5.65;3.40;;;20.60;99.90;;;;;;5013714;28;20203;-60
2022/07/29 00:20:06;;;;;;;5.90;3.80;;;20.50;99.90;;;;;;5013389;28;20226;-60
2022/07/29 00:22:32;;;;;;;4.22;3.58;;;20.50;99.90;;;;;;5013689;28;20213;-60
2022/07/29 00:24:59;;;;;;;5.57;3.78;;;20.50;99.90;;;;;;5013394;28;20729;-60
2022/07/29 00:27:27;;;;;;;4.07;3.67;;;20.50;99.90;;;;;;5013615;28;20209;-60
2022/07/29 00:29:54;;;;;;;5.95;3.50;;;20.50;99.90;;;;;;5013498;28;20277;-60
2022/07/29 00:32:20;;;;;;;5.10;3.42;;;20.40;99.90;;;;;;5013458;28;20697;-60
2022/07/29 00:37:31;;;;;;;5.88;3.60;;;20.30;99.90;;;;;;5013175;28;20237;-60
2022/07/29 00:56:50;;;;;;;7.68;3.60;;;19.80;99.90;;;;;;5012816;28;20190;-60
2022/07/29 00:59:17;;;;;;;5.93;3.88;;;19.80;99.90;;;;;;5012086;28;20237;-60
2022/07/29 01:01:43;;;;;;;5.60;3.60;;;19.80;99.90;;;;;;5012696;28;20227;-60
2022/07/29 01:04:10;;;;;;;4.88;3.60;;;19.70;99.90;;;;;;5012729;28;20211;-60
2022/07/29 01:06:37;;;;;;;7.20;3.95;;;19.70;99.90;;;;;;5012321;28;20207;-60
2022/07/29 01:09:04;;;;;;;6.72;4.25;;;19.70;99.90;;;;;;5012557;28;20222;-60
2022/07/29 01:11:31;;;;;;;4.75;4.10;;;19.70;99.90;;;;;;5012375;28;20214;-60
2022/07/29 01:13:59;;;;;;;5.13;3.92;;;19.80;99.90;;;;;;5012484;28;20289;-60
2022/07/29 01:16:32;;;;;;;4.40;3.92;;;19.80;99.90;;;;;;5012232;28;20211;-60
2022/07/29 01:19:07;;;;;;;6.40;4.30;;;19.80;99.90;;;;;;5012533;28;20710;-60
2022/07/29 01:21:50;;;;;;;4.72;4.03;;;19.80;99.90;;;;;;5012551;28;20230;-60
2022/07/29 01:24:41;;;;;;;9.45;3.90;;;19.70;99.90;;;;;;5012867;28;20225;-60
2022/07/29 01:27:23;;;;;;;5.32;4.00;;;19.70;99.90;;;;;;5012161;28;20722;-60
2022/07/29 01:29:54;;;;;;;4.13;3.60;;;19.60;99.90;;;;;;5012123;28;20821;-60
2022/07/29 01:32:26;;;;;;;4.53;4.13;;;19.60;99.90;;;;;;5012150;28;20257;-60
2022/07/29 01:34:58;;;;;;;4.97;4.03;;;19.60;99.90;;;;;;5012430;28;20206;-60
2022/07/29 01:37:29;;;;;;;5.18;4.30;;;19.70;99.90;;;;;;5011844;28;20617;-60
2022/07/29 01:39:58;;;;;;;6.53;3.90;;;19.60;99.90;;;;;;5012017;28;20238;-60
2022/07/29 01:42:39;;;;;;;8.68;4.38;;;19.60;99.90;;;;;;5012052;28;20211;-60
2022/07/29 01:45:15;;;;;;;7.32;4.13;;;19.50;99.90;;;;;;5011804;28;20214;-60
2022/07/29 01:47:47;;;;;;;6.28;4.43;;;19.50;99.90;;;;;;5011680;28;20214;-60
2022/07/29 01:50:18;;;;;;;5.05;4.00;;;19.50;99.90;;;;;;5012128;28;20214;-60
2022/07/29 01:52:54;;;;;;;6.07;4.65;;;19.40;99.90;;;;;;5012198;28;20203;-60
2022/07/29 01:55:25;;;;;;;5.35;3.88;;;19.40;99.90;;;;;;5011577;28;20211;-60
2022/07/29 01:57:52;;;;;;;4.57;4.18;;;19.40;99.90;;;;;;5011977;28;20214;-60
2022/07/29 02:00:20;;;;;;;7.65;4.55;;;19.20;99.90;;;;;;5012104;28;20230;-60
2022/07/29 02:02:49;;;;;;;4.53;3.95;;;19.30;99.90;;;;;;5011920;28;20588;-60
2022/07/29 02:05:18;;;;;;;4.47;4.03;;;19.30;99.90;;;;;;5011704;28;20285;-60
2022/07/29 02:07:47;;;;;;;6.00;4.10;;;19.30;99.90;;;;;;5011665;28;20210;-60
2022/07/29 02:10:15;;;;;;;8.95;4.30;;;19.20;99.90;;;;;;5011731;28;20667;-60
2022/07/29 02:12:43;;;;;;;5.95;4.38;;;19.20;99.90;;;;;;5011881;28;20302;-60
2022/07/29 02:15:12;;;;;;;4.60;4.10;;;19.20;99.90;;;;;;5011477;28;20343;-60
2022/07/29 02:17:44;;;;;;;5.60;4.53;;;19.20;99.90;;;;;;5011722;28;20306;-60
2022/07/29 02:20:11;;;;;;;5.32;4.80;;;19.10;99.90;;;;;;5011588;28;20713;-60
2022/07/29 02:39:30;;;;;;;4.57;4.18;;;18.70;99.90;;;;;;5010945;28;20249;-60
2022/07/29 02:42:02;;;;;;;5.20;4.28;;;18.60;99.90;;;;;;5011463;28;20222;-60
2022/07/29 02:44:28;;;;;;;6.35;4.28;;;18.50;99.90;;;;;;5011946;28;20218;-60
2022/07/29 02:47:00;;;;;;;5.78;4.30;;;18.50;99.90;;;;;;5011441;28;20265;-60
2022/07/29 02:49:37;;;;;;;10.88;4.88;;;18.40;99.90;;;;;;5011578;28;20282;-60
2022/07/29 02:52:09;;;;;;;4.82;4.30;;;18.40;99.90;;;;;;5011707;28;20253;-60
2022/07/29 02:54:42;;;;;;;5.50;5.00;;;18.00;99.90;;;;;;5011508;28;20210;-60
2022/07/29 02:57:15;;;;;;;5.28;4.78;;;18.30;99.90;;;;;;5011083;28;20269;-60
2022/07/29 02:59:44;;;;;;;4.70;4.30;;;18.30;99.90;;;;;;5013280;28;20235;-60
2022/07/29 03:02:12;;;;;;;6.57;4.68;;;18.30;99.90;;;;;;5014964;28;20370;-60
2022/07/29 03:04:42;;;;;;;5.50;4.78;;;18.20;99.90;;;;;;5014957;28;20202;-60
2022/07/29 03:07:11;;;;;;;6.35;4.68;;;18.20;99.90;;;;;;5014614;28;20210;-60
2022/07/29 03:09:39;;;;;;;7.25;4.82;;;18.20;99.90;;;;;;5014515;28;20234;-60
2022/07/29 03:12:07;;;;;;;6.47;5.85;;;18.20;99.90;;;;;;5014813;28;20298;-60
2022/07/29 03:14:34;;;;;;;6.20;5.60;;;18.10;99.90;;;;;;5014794;28;20226;-60
2022/07/29 03:17:01;;;;;;;5.10;4.60;;;18.10;99.90;;;;;;5014071;28;20785;-60
2022/07/29 03:19:28;;;;;;;5.28;4.78;;;18.20;99.90;;;;;;5014365;28;20234;-60
2022/07/29 03:21:57;;;;;;;7.75;4.82;;;18.20;99.90;;;;;;5014238;28;20642;-60
2022/07/29 03:24:29;;;;;;;7.90;4.70;;;18.20;99.90;;;;;;5014471;28;20289;-60
2022/07/29 03:26:57;;;;;;;6.22;4.78;;;18.10;99.90;;;;;;5014645;28;20233;-60
2022/07/29 03:29:24;;;;;;;5.75;4.45;;;18.10;99.90;;;;;;5014339;28;20223;-60
2022/07/29 03:31:51;;;;;;;10.13;5.10;;;18.10;99.90;;;;;;5014625;28;20214;-60
2022/07/29 03:34:18;;;;;;;6.20;5.50;;;18.10;99.90;;;;;;5014477;28;20238;-60
2022/07/29 03:36:44;;;;;;;5.78;4.82;;;18.10;99.90;;;;;;5013664;28;20211;-60
2022/07/29 03:39:15;;;;;;;4.95;4.43;;;18.20;99.90;;;;;;5014677;28;20268;-59
2022/07/29 03:41:45;;;;;;;5.47;4.88;;;18.20;99.90;;;;;;5014104;28;20233;-60
2022/07/29 03:44:14;;;;;;;5.05;4.65;;;18.20;99.90;;;;;;5013828;28;20683;-60
2022/07/29 03:46:43;;;;;;;5.05;4.47;;;18.00;99.90;;;;;;5013626;28;20624;-60
2022/07/29 03:49:12;;;;;;;5.30;4.80;;;17.90;99.90;;;;;;5013999;28;20273;-60
2022/07/29 03:51:39;;;;;;;7.38;5.38;;;18.00;99.90;;;;;;5014277;28;20257;-60
2022/07/29 03:54:06;;;;;;;5.30;4.78;;;18.10;99.90;;;;;;5013813;28;20207;-60
2022/07/29 03:56:38;;;;;;;7.45;5.60;;;18.20;99.90;;;;;;5013803;28;20215;-60
2022/07/29 03:59:05;;;;;;;5.28;4.68;;;18.20;99.90;;;;;;5013844;28;20226;-60
2022/07/29 04:01:34;;;;;;;5.30;4.80;;;18.30;99.90;;;;;;5013931;28;20227;-60
2022/07/29 04:04:02;;;;;;;9.60;4.78;;;18.40;99.90;;;;;;5014516;28;20211;-60
2022/07/29 04:06:29;;;;;;;6.32;4.68;;;18.40;99.90;;;;;;5014247;28;20257;-60
2022/07/29 04:08:55;;;;;;;6.38;5.32;;;18.50;99.90;;;;;;5013942;28;20277;-60
2022/07/29 04:11:22;;;;;;;5.90;4.90;;;18.60;99.90;;;;;;5013297;28;20233;-60
2022/07/29 04:13:49;;;;;;;5.20;4.70;;;18.60;99.90;;;;;;5013524;28;20207;-60
2022/07/29 04:16:15;;;;;;;5.03;4.50;;;18.70;99.90;;;;;;5013090;28;20253;-60
2022/07/29 04:18:43;;;;;;;5.97;4.95;;;18.80;99.90;;;;;;5013613;28;20235;-60
2022/07/29 04:21:10;;;;;;;5.25;4.75;;;18.70;99.90;;;;;;5013541;28;20227;-60
2022/07/29 04:23:36;;;;;;;5.93;4.43;;;18.70;99.90;;;;;;5013481;28;20207;-60
2022/07/29 04:26:03;;;;;;;5.80;4.20;;;18.70;99.90;;;;;;5013124;28;20206;-60
2022/07/29 04:28:30;;;;;;;6.90;4.78;;;18.80;99.90;;;;;;5013201;28;20227;-60
2022/07/29 04:30:56;;;;;;;5.05;4.60;;;18.80;99.90;;;;;;5013120;28;20235;-60
2022/07/29 04:33:23;;;;;;;5.15;4.50;;;18.70;99.90;;;;;;5013323;28;20226;-60
2022/07/29 04:49:48;;;;;;;6.43;4.20;;;18.90;99.90;;;;;;5012203;28;20210;-66
2022/07/29 04:52:15;;;;;;;4.72;4.22;;;18.80;99.90;;;;;;4973217;28;20216;-61
2022/07/29 04:54:41;;;;;;;6.55;3.90;;;19.00;99.90;;;;;;4972981;28;20208;-64
2022/07/29 04:57:08;;;;;;;8.88;4.57;;;19.20;99.90;;;;;;4972588;28;20208;-65
2022/07/29 04:59:35;;;;;;;4.80;4.10;;;19.20;99.90;;;;;;4972660;28;20235;-63
2022/07/29 05:02:01;;;;;;;6.07;3.95;;;19.30;99.90;;;;;;4971763;28;20368;-63
2022/07/29 05:04:28;;;;;;;5.78;4.47;;;19.50;99.90;;;;;;4981148;28;20208;-63
2022/07/29 05:06:56;;;;;;;5.57;3.70;;;19.70;99.90;;;;;;4990857;28;20208;-61
2022/07/29 05:09:23;;;;;;;4.07;3.60;;;19.90;99.90;;;;;;4991346;28;20298;-63
2022/07/29 05:11:49;;;;;;;4.03;3.35;;;20.00;99.90;;;;;;4990905;28;20672;-63
2022/07/29 05:14:16;;;;;;;5.47;4.07;;;20.10;99.90;;;;;;4991309;28;20570;-62
2022/07/29 05:16:43;;;;;;;5.75;3.42;;;20.20;99.90;;;;;;4991570;28;20199;-64
2022/07/29 05:19:10;;;;;;;4.82;3.85;;;20.30;99.90;;;;;;4991264;28;20262;-64
2022/07/29 05:21:36;;;;;;;4.75;3.47;;;20.40;99.90;;;;;;4991053;28;20281;-64
2022/07/29 05:24:05;;;;;;;3.90;3.35;;;20.60;99.90;;;;;;4991867;28;20211;-65
2022/07/29 05:26:32;;;;;;;4.80;3.58;;;20.70;99.90;;;;;;4991879;28;20211;-63
2022/07/29 05:28:58;;;;;;;6.85;3.38;;;20.90;99.90;;;;;;4990463;28;20262;-63
2022/07/29 05:31:25;;;;;;;4.25;3.50;;;21.00;99.90;;;;;;4991532;28;20199;-63
2022/07/29 05:33:51;;;;;;;5.45;3.47;;;21.20;99.90;;;;;;4990937;28;20211;-64
2022/07/29 05:36:18;;;;;;;4.78;3.15;;;21.20;99.90;;;;;;4991142;28;20687;-65
2022/07/29 05:38:45;;;;;;;4.70;3.20;;;21.30;99.90;;;;;;4991314;28;20270;-63
2022/07/29 05:41:13;;;;;;;4.80;3.30;;;21.50;99.90;;;;;;4991211;28;20322;-63
2022/07/29 05:43:40;;;;;;;3.83;2.92;;;21.70;99.90;;;;;;4991559;28;20216;-63
2022/07/29 05:46:06;;;;;;;4.00;3.13;;;22.00;99.90;;;;;;4990600;28;20208;-63
2022/07/29 05:48:33;;;;;;;4.43;3.05;;;22.30;99.90;;;;;;4991185;28;20232;-63
2022/07/29 05:50:59;;;;;;;3.75;2.88;;;22.60;99.90;;;;;;4991469;28;20207;-63
2022/07/29 05:53:26;;;;;;;4.40;3.20;;;22.90;99.90;;;;;;4991595;28;20203;-63
2022/07/29 05:55:53;;;;;;;4.32;3.10;;;23.80;99.90;;;;;;4991575;28;20620;-63
2022/07/29 05:58:21;;;;;;;4.40;2.88;;;24.50;99.90;;;;;;4991062;28;20231;-64
2022/07/29 06:00:48;;;;;;;4.10;2.53;;;25.40;99.90;;;;;;4991465;28;20211;-63
2022/07/29 06:03:14;;;;;;;4.00;2.95;;;26.10;99.90;;;;;;4991336;28;20258;-62
2022/07/29 06:05:41;;;;;;;4.47;3.00;;;26.50;99.90;;;;;;4991216;28;20216;-62
2022/07/29 06:08:08;;;;;;;2.97;2.50;;;26.70;99.90;;;;;;4991192;28;20235;-62
2022/07/29 06:10:36;;;;;;;4.15;2.63;;;27.10;99.90;;;;;;4990737;28;20283;-62
2022/07/29 06:13:02;;;;;;;4.07;2.70;;;27.70;99.90;;;;;;4991039;28;20207;-62
2022/07/29 06:15:30;;;;;;;4.07;2.67;;;28.50;99.90;;;;;;4991235;28;20234;-62
2022/07/29 06:17:57;;;;;;;6.82;2.50;;;29.30;99.90;;;;;;4990990;28;20227;-62
2022/07/29 06:20:24;;;;;;;6.45;3.22;;;30.40;99.90;;;;;;4991311;28;20294;-61
2022/07/29 06:22:51;;;;;;;3.33;2.35;;;31.50;99.90;;;;;;4990811;28;20309;-61
2022/07/29 06:25:18;;;;;;;3.22;2.15;;;32.20;96.70;;;;;;4991137;28;20277;-63
2022/07/29 06:27:44;;;;;;;3.55;2.42;;;32.80;94.90;;;;;;4990773;28;20215;-62
2022/07/29 06:30:12;;;;;;;2.50;2.03;;;33.60;92.40;;;;;;4990806;28;20215;-62
2022/07/29 06:32:40;;;;;;;2.88;2.20;;;34.40;89.10;;;;;;4991628;28;20258;-62
2022/07/29 06:35:07;;;;;;;3.13;2.15;;;35.00;85.80;;;;;;4994303;28;20207;-65
2022/07/29 06:37:34;;;;;;;2.95;2.28;;;35.50;81.90;;;;;;4994352;28;20675;-63
2022/07/29 06:42:45;;;;;;;4.38;2.50;;;37.00;74.10;;;;;;4994719;28;20702;-63
2022/07/29 06:45:12;;;;;;;2.20;1.90;;;38.00;68.90;;;;;;4994744;28;20414;-63
2022/07/29 06:58:08;;;;;;;2.95;1.67;;;39.30;59.20;;;;;;4994043;28;20191;-62
2022/07/29 07:00:36;;;;;;;3.33;1.95;;;38.20;60.80;;;;;;4974040;28;20208;-62
2022/07/29 07:03:02;;;;;;;1.85;1.70;;;37.60;62.20;;;;;;4975113;28;20239;-62
2022/07/29 07:05:29;;;;;;;2.05;1.90;;;37.00;62.80;;;;;;4974890;28;20274;-63
2022/07/29 07:07:56;;;;;;;3.60;2.10;;;36.10;65.10;;;;;;4974469;28;20228;-62
2022/07/29 07:10:22;;;;;;;3.67;2.00;;;35.20;66.90;;;;;;4974435;28;20219;-64
2022/07/29 07:12:49;;;;;;;2.60;2.15;;;33.90;70.10;;;;;;4974642;28;20739;-63
2022/07/29 07:15:21;;;;;;;2.60;2.00;;;33.70;70.80;;;;;;4974423;28;20771;-64
2022/07/29 07:17:48;;;;;;;2.80;2.20;;;33.80;70.90;;;;;;4974534;28;20208;-63
2022/07/29 07:20:15;;;;;;;2.97;1.90;;;34.60;69.60;;;;;;4974857;28;20208;-64
2022/07/29 07:22:41;;;;;;;5.22;2.22;;;35.80;66.10;;;;;;4974402;28;20236;-65
2022/07/29 07:25:08;;;;;;;3.28;1.67;;;36.60;63.50;;;;;;4974564;28;20212;-64
2022/07/29 07:27:35;;;;;;;2.58;1.83;;;37.40;61.30;;;;;;4974058;28;20259;-61
2022/07/29 07:30:02;;;;;;;5.55;1.92;;;38.00;60.30;;;;;;4974673;28;20219;-66
2022/07/29 07:32:30;;;;;;;4.18;1.95;;;38.60;59.00;;;;;;4974564;28;20200;-62
2022/07/29 07:34:57;;;;;;;3.80;1.73;;;38.80;58.00;;;;;;4974095;28;20212;-63
2022/07/29 07:37:24;;;;;;;3.35;1.80;;;39.20;57.30;;;;;;4974092;28;20212;-65
2022/07/29 07:39:51;;;;;;;2.35;2.00;;;39.10;56.30;;;;;;4974294;28;20275;-63
2022/07/29 07:42:18;;;;;;;2.80;1.77;;;38.60;57.20;;;;;;4973978;28;20597;-63
2022/07/29 07:44:45;;;;;;;1.75;1.58;;;38.60;56.80;;;;;;4973552;28;20258;-60
2022/07/29 07:47:12;;;;;;;2.40;1.65;;;38.90;56.00;;;;;;4973584;28;20216;-64
2022/07/29 07:49:40;;;;;;;3.08;1.90;;;38.50;56.40;;;;;;4974006;28;20650;-65
2022/07/29 07:52:06;;;;;;;2.13;1.60;;;37.50;57.40;;;;;;4973825;28;20295;-61
2022/07/29 07:54:33;;;;;;;3.17;1.90;;;36.60;59.00;;;;;;4973834;28;20217;-61
2022/07/29 07:57:00;;;;;;;2.30;1.70;;;35.70;60.70;;;;;;4973831;28;20275;-61
2022/07/29 07:59:27;;;;;;;3.53;1.92;;;35.10;62.40;;;;;;4973705;28;20263;-61
2022/07/29 08:01:53;;;;;;;3.42;2.20;;;35.10;62.90;;;;;;4973548;28;20216;-61
2022/07/29 08:04:20;;;;;;;2.00;1.73;;;35.60;62.00;;;;;;4973718;28;20216;-61
2022/07/29 08:06:49;;;;;;;4.57;1.98;;;35.80;61.40;;;;;;4973465;28;20248;-61
2022/07/29 08:09:16;;;;;;;3.67;1.90;;;35.90;61.60;;;;;;4973269;28;20303;-61
2022/07/29 08:11:43;;;;;;;3.83;1.80;;;36.00;62.10;;;;;;4973130;28;20259;-62
2022/07/29 08:14:09;;;;;;;5.18;2.00;;;37.10;59.50;;;;;;4973554;28;20208;-61
2022/07/29 08:16:36;;;;;;;3.00;2.17;;;37.70;57.90;;;;;;4973581;28;20208;-61
2022/07/29 08:19:02;;;;;;;2.55;2.00;;;37.70;58.10;;;;;;4973554;28;20240;-61
2022/07/29 08:21:29;;;;;;;4.82;1.92;;;38.30;57.30;;;;;;4973566;28;20251;-61
2022/07/29 08:26:38;;;;;;;2.65;1.85;;;39.30;56.10;;;;;;4972631;28;20295;-62
2022/07/29 08:29:04;;;;;;;3.58;2.22;;;39.70;54.20;;;;;;4973147;28;20228;-61
2022/07/29 08:31:31;;;;;;;3.53;2.08;;;39.80;54.00;;;;;;4973283;28;20290;-61
2022/07/29 08:33:59;;;;;;;2.17;1.90;;;40.20;53.30;;;;;;4973134;28;20212;-62
2022/07/29 08:36:26;;;;;;;4.07;2.05;;;41.00;51.60;;;;;;4972401;28;20267;-61
2022/07/29 08:38:53;;;;;;;3.90;2.40;;;41.20;51.20;;;;;;4972889;28;20310;-61
2022/07/29 08:41:21;;;;;;;3.03;2.03;;;41.20;50.60;;;;;;4973081;28;20219;-61
2022/07/29 08:43:48;;;;;;;3.78;2.10;;;40.50;51.30;;;;;;4972853;28;20609;-61
2022/07/29 08:46:16;;;;;;;2.60;2.10;;;39.70;52.30;;;;;;4972375;28;20266;-61
2022/07/29 08:48:43;;;;;;;5.18;2.25;;;38.80;53.40;;;;;;4972495;28;20243;-61
2022/07/29 08:51:14;;;;;;;5.35;2.20;;;38.20;54.10;;;;;;4973028;28;20209;-61
2022/07/29 08:53:43;;;;;;;3.45;2.50;;;37.20;55.40;;;;;;4972860;28;20579;-60
2022/07/29 08:56:13;;;;;;;3.85;2.15;;;35.80;57.30;;;;;;4973916;28;20707;-60
2022/07/29 08:58:42;;;;;;;4.43;2.50;;;34.80;58.70;;;;;;4975870;28;20251;-60
2022/07/29 09:01:09;;;;;;;3.63;2.47;;;34.10;60.00;;;;;;4975525;28;20208;-61
2022/07/29 09:03:38;;;;;;;4.18;2.50;;;33.60;61.30;;;;;;4977288;28;20247;-60
2022/07/29 09:06:05;;;;;;;3.30;2.53;;;33.10;61.60;;;;;;4975697;28;20573;-60
2022/07/29 09:08:33;;;;;;;2.92;2.25;;;32.70;62.50;;;;;;4972993;28;20236;-60
2022/07/29 09:11:03;;;;;;;3.38;2.65;;;32.10;64.10;;;;;;4972547;28;20631;-68
2022/07/29 09:13:29;;;;;;;3.97;2.67;;;31.40;65.50;;;;;;4972546;28;20223;-64
2022/07/29 09:15:57;;;;;;;5.15;2.97;;;30.80;68.30;;;;;;4976155;28;20210;-64
2022/07/29 09:18:37;;;;;;;3.28;2.72;;;30.40;70.80;;;;;;4974609;28;20232;-61
2022/07/29 09:24:06;;;;;;;5.05;2.40;;;29.90;72.40;;;;;;4974577;28;20228;-63
2022/07/29 09:26:35;;;;;;;6.20;3.10;;;30.10;72.00;;;;;;4973245;28;20220;-62
2022/07/29 09:29:09;;;;;;;3.55;2.60;;;30.20;72.60;;;;;;4972614;28;20224;-62
2022/07/29 09:31:39;;;;;;;3.38;2.70;;;30.30;72.70;;;;;;4972799;28;20270;-66
2022/07/29 09:34:07;;;;;;;5.63;2.83;;;30.40;72.80;;;;;;4972435;28;20252;-68
2022/07/29 09:36:40;;;;;;;3.60;2.83;;;30.50;72.90;;;;;;4972314;28;20216;-62
2022/07/29 09:39:07;;;;;;;4.88;3.03;;;30.70;73.00;;;;;;5024823;23;20230;-57
2022/07/29 09:41:46;;;;;;;6.07;3.00;;;30.80;72.70;;;;;;5023639;28;20608;-58
2022/07/29 09:44:14;;;;;;;4.28;2.92;;;30.90;73.20;;;;;;5031950;28;20264;-58
2022/07/29 09:46:56;;;;;;;6.75;3.10;;;30.90;72.20;;;;;;5031788;28;20210;-58
2022/07/29 09:49:23;;;;;;;6.07;3.00;;;31.00;72.30;;;;;;5031820;28;20713;-58
2022/07/29 09:52:00;;;;;;;3.20;2.42;;;31.00;71.20;;;;;;5032072;28;20206;-59
2022/07/29 09:54:28;;;;;;;5.00;3.10;;;30.80;72.70;;;;;;5031824;28;20689;-58
2022/07/29 09:56:56;;;;;;;5.32;2.90;;;30.70;71.50;;;;;;5031750;28;20237;-58
2022/07/29 09:59:26;;;;;;;3.80;2.90;;;30.70;72.00;;;;;;5031766;28;20284;-59
2022/07/29 10:01:54;;;;;;;6.15;3.10;;;30.80;72.60;;;;;;5032049;28;20213;-59
2022/07/29 10:04:20;;;;;;;4.22;2.95;;;30.90;72.20;;;;;;5031908;28;20316;-59
2022/07/29 10:06:58;;;;;;;5.55;2.97;;;31.10;71.40;;;;;;5031836;28;20210;-58
2022/07/29 10:09:25;;;;;;;4.95;3.20;;;31.30;71.10;;;;;;5035268;28;20225;-58
2022/07/29 10:12:05;;;;;;;6.05;3.05;;;31.40;70.90;;;;;;5035804;28;20301;-58
2022/07/29 10:14:33;;;;;;;5.22;3.45;;;31.30;70.50;;;;;;5036106;28;20625;-58
2022/07/29 10:17:02;;;;;;;3.75;3.20;;;31.10;70.90;;;;;;5035651;28;20317;-58
2022/07/29 10:19:31;;;;;;;3.70;3.08;;;31.00;71.50;;;;;;5035727;28;20237;-58
2022/07/29 10:21:58;;;;;;;5.10;2.78;;;30.90;71.50;;;;;;5035714;28;20301;-58
2022/07/29 10:24:27;;;;;;;5.60;3.13;;;30.90;71.10;;;;;;5035698;28;20264;-59
2022/07/29 10:26:55;;;;;;;4.68;3.38;;;31.00;71.30;;;;;;5035554;28;20233;-58
2022/07/29 10:29:22;;;;;;;5.13;3.13;;;31.10;70.30;;;;;;5035708;28;20233;-58
2022/07/29 10:31:57;;;;;;;5.28;3.10;;;31.10;69.90;;;;;;5035874;28;20218;-58
2022/07/29 10:34:37;;;;;;;8.20;3.50;;;31.30;69.00;;;;;;5035829;28;20629;-58
2022/07/29 10:37:14;;;;;;;9.05;4.25;;;31.60;68.40;;;;;;5035501;28;20210;-58
2022/07/29 10:39:49;;;;;;;4.82;3.60;;;31.70;67.80;;;;;;5035346;28;20238;-58
2022/07/29 10:42:20;;;;;;;4.60;3.53;;;31.80;68.70;;;;;;5035457;28;20688;-58
2022/07/29 10:44:48;;;;;;;6.50;3.22;;;31.80;67.70;;;;;;5035428;28;20206;-59
2022/07/29 10:47:25;;;;;;;5.03;3.15;;;31.70;67.80;;;;;;5035129;28;20206;-59
2022/07/29 10:50:02;;;;;;;4.38;3.05;;;31.60;68.70;;;;;;5035571;28;20230;-59
2022/07/29 10:52:53;;;;;;;5.53;3.58;;;31.50;68.20;;;;;;5014039;28;20572;-58
2022/07/29 10:55:33;;;;;;;4.45;3.05;;;31.50;68.00;;;;;;5034654;28;20293;-59
2022/07/29 10:58:13;;;;;;;5.38;3.17;;;31.50;67.70;;;;;;5033945;28;20289;-60
2022/07/29 11:00:40;;;;;;;7.43;3.30;;;31.50;67.20;;;;;;5034050;28;20721;-61
2022/07/29 11:03:06;;;;;;;5.97;3.17;;;31.30;67.30;;;;;;5035196;28;20222;-61
2022/07/29 11:05:53;;;;;;;7.10;5.57;;;31.10;67.90;;;;;;5034735;28;20233;-61
2022/07/29 11:08:25;;;;;;;6.53;3.40;;;30.90;68.40;;;;;;5033872;28;20594;-58
2022/07/29 11:10:54;;;;;;;7.82;3.55;;;30.70;68.80;;;;;;5034168;28;20300;-60
2022/07/29 11:13:50;;;;;;;6.45;3.45;;;30.30;69.40;;;;;;5033695;28;20237;-61
2022/07/29 11:16:17;;;;;;;8.70;3.58;;;30.00;70.60;;;;;;5033183;28;20221;-59
2022/07/29 11:19:21;;;;;;;4.60;3.22;;;29.90;70.70;;;;;;5032939;28;20554;-59
2022/07/29 11:21:51;;;;;;;6.13;3.30;;;29.80;70.70;;;;;;5014621;28;20276;-58
2022/07/29 11:24:20;;;;;;;5.57;3.22;;;29.60;72.30;;;;;;5033390;28;20729;-58
2022/07/29 11:27:07;;;;;;;6.47;2.80;;;29.50;77.10;;;;;;5033032;28;20202;-59
2022/07/29 11:29:38;;;;;;;6.28;3.47;;;29.40;76.80;;;;;;5033277;28;20230;-57
2022/07/29 11:32:15;;;;;;;5.38;3.30;;;29.20;75.50;;;;;;5033608;28;20518;-58
2022/07/29 11:34:42;;;;;;;8.30;4.15;;;29.10;77.70;;;;;;5034029;28;20205;-57
2022/07/29 11:37:20;;;;;;;6.38;3.47;;;29.00;77.00;;;;;;5034861;28;20210;-58
2022/07/29 11:40:08;;;;;;;8.68;6.72;;;28.90;76.90;;;;;;5035848;28;20234;-58
2022/07/29 11:42:40;;;;;;;7.75;4.55;;;28.80;77.40;;;;;;5035704;28;20301;-57
2022/07/29 11:45:09;;;;;;;6.90;3.63;;;28.70;79.00;;;;;;5035521;28;20296;-58
2022/07/29 11:47:38;;;;;;;9.32;3.90;;;28.60;81.30;;;;;;5035259;28;20206;-59
2022/07/29 11:50:07;;;;;;;12.23;4.07;;;28.50;82.70;;;;;;5034905;28;20237;-57
2022/07/29 11:52:42;;;;;;;6.70;3.40;;;28.40;87.20;;;;;;5034581;28;20206;-58
2022/07/29 11:55:12;;;;;;;9.00;4.03;;;28.20;90.10;;;;;;5035168;28;20488;-58
2022/07/29 11:57:45;;;;;;;14.20;4.82;;;28.20;91.60;;;;;;5034893;28;20245;-59
2022/07/29 12:00:14;;;;;;;9.10;4.35;;;28.20;94.10;;;;;;5035819;28;20226;-58
2022/07/29 12:02:42;;;;;;;6.70;4.40;;;28.40;95.00;;;;;;5036231;28;20211;-59
2022/07/29 12:05:10;;;;;;;6.32;4.00;;;28.60;95.20;;;;;;5036333;28;20216;-58
2022/07/29 12:07:39;;;;;;;10.82;4.30;;;28.90;95.40;;;;;;5035287;28;20239;-58
2022/07/29 12:10:08;;;;;;;14.73;6.72;;;29.10;95.20;;;;;;5034504;28;20230;-58
2022/07/29 12:12:35;;;;;;;5.95;4.82;;;29.30;95.50;;;;;;5034662;28;20202;-58
2022/07/29 12:15:17;;;;;;;11.82;5.20;;;29.30;96.00;;;;;;5034130;28;20296;-58
2022/07/29 12:17:44;;;;;;;10.18;4.60;;;29.00;98.00;;;;;;5033786;28;20206;-58
2022/07/29 12:20:12;;;;;;;8.23;5.13;;;28.80;99.50;;;;;;5034112;28;20257;-58
2022/07/29 12:22:44;;;;;;;8.18;5.07;;;28.70;99.90;;;;;;5033933;28;20233;-59
2022/07/29 12:25:15;;;;;;;5.88;4.35;;;28.70;99.90;;;;;;5034221;28;20606;-58
2022/07/29 12:27:42;;;;;;;6.47;4.50;;;28.70;99.90;;;;;;5033391;28;20653;-58
2022/07/29 12:30:11;;;;;;;5.15;3.92;;;28.80;99.20;;;;;;5033533;28;20257;-58
2022/07/29 12:32:42;;;;;;;6.07;3.70;;;28.80;99.40;;;;;;5033550;28;20631;-58
2022/07/29 12:35:11;;;;;;;6.45;3.95;;;28.80;99.30;;;;;;5034252;28;20212;-58
2022/07/29 12:37:42;;;;;;;8.10;4.10;;;28.70;99.10;;;;;;5034240;28;20213;-59
2022/07/29 12:40:11;;;;;;;5.30;4.30;;;28.60;99.80;;;;;;5034189;28;20245;-58
2022/07/29 12:42:38;;;;;;;7.30;4.60;;;28.70;99.60;;;;;;5034254;28;20289;-59
2022/07/29 12:45:06;;;;;;;6.13;3.92;;;28.60;98.90;;;;;;5033858;28;20710;-59
2022/07/29 12:47:33;;;;;;;8.90;4.05;;;28.80;97.90;;;;;;5033865;28;20234;-58
2022/07/29 12:50:11;;;;;;;7.80;4.30;;;29.00;97.30;;;;;;5033676;28;20222;-59
2022/07/29 12:52:38;;;;;;;8.75;3.60;;;29.20;96.60;;;;;;5033894;28;20293;-60
2022/07/29 12:55:07;;;;;;;6.28;3.22;;;29.30;96.20;;;;;;5034841;28;20202;-59
2022/07/29 12:57:46;;;;;;;4.95;3.15;;;29.60;94.90;;;;;;5034209;28;20202;-59
2022/07/29 13:00:14;;;;;;;4.68;2.92;;;29.60;94.10;;;;;;5034525;28;20317;-59
2022/07/29 13:02:43;;;;;;;6.03;3.92;;;29.70;93.30;;;;;;5033805;28;20716;-59
2022/07/29 13:05:12;;;;;;;5.38;2.85;;;29.70;92.50;;;;;;5034193;28;20234;-59
2022/07/29 13:07:39;;;;;;;4.57;2.70;;;29.80;92.50;;;;;;5033239;28;20210;-59
2022/07/29 13:10:16;;;;;;;16.73;3.75;;;29.90;92.40;;;;;;5033587;28;20222;-59
2022/07/29 13:13:05;;;;;;;4.32;2.88;;;30.20;91.70;;;;;;5033326;28;20220;-59
2022/07/29 13:15:33;;;;;;;4.82;2.33;;;30.30;90.00;;;;;;5033025;28;20202;-59
2022/07/29 13:18:00;;;;;;;2.35;1.80;;;30.40;84.80;;;;;;5032807;28;20213;-59
2022/07/29 13:20:30;;;;;;;4.22;1.60;;;30.40;82.70;;;;;;5033424;28;20589;-59
2022/07/29 13:22:57;;;;;;;2.47;1.95;;;30.30;81.50;;;;;;5033382;28;20206;-59
2022/07/29 13:25:28;;;;;;;2.83;2.00;;;30.30;81.50;;;;;;5033323;28;20284;-59
2022/07/29 13:27:55;;;;;;;2.35;1.70;;;30.20;82.50;;;;;;5032674;28;20210;-59
2022/07/29 13:30:22;;;;;;;3.97;1.98;;;30.00;82.20;;;;;;5032762;28;20206;-58
2022/07/29 13:32:50;;;;;;;2.25;1.70;;;29.70;82.50;;;;;;5032884;28;20237;-57
2022/07/29 13:35:17;;;;;;;2.92;1.90;;;29.30;82.50;;;;;;5033202;28;20213;-58
2022/07/29 13:37:44;;;;;;;2.92;1.80;;;29.00;82.80;;;;;;5032883;28;20642;-58
2022/07/29 13:40:12;;;;;;;3.33;1.77;;;28.80;84.70;;;;;;5032757;28;20230;-60
2022/07/29 13:42:40;;;;;;;5.03;2.10;;;28.60;85.60;;;;;;5032444;28;20245;-59
2022/07/29 13:45:08;;;;;;;3.70;1.58;;;28.40;87.40;;;;;;5033497;28;20253;-58
2022/07/29 13:47:35;;;;;;;2.22;2.03;;;28.20;86.60;;;;;;5033005;28;20206;-58
2022/07/29 13:50:03;;;;;;;6.00;1.90;;;28.00;89.80;;;;;;5032678;28;20237;-59
2022/07/29 13:52:30;;;;;;;5.28;2.08;;;27.80;91.60;;;;;;5032811;28;20637;-58
2022/07/29 13:54:56;;;;;;;4.43;2.33;;;27.50;94.50;;;;;;5032715;28;20206;-59
2022/07/29 13:57:23;;;;;;;7.28;2.20;;;27.30;95.70;;;;;;5032535;28;20602;-58
2022/07/29 13:59:51;;;;;;;4.03;1.95;;;27.10;96.70;;;;;;5032408;28;20233;-57
2022/07/29 14:02:18;;;;;;;3.90;2.42;;;27.00;97.70;;;;;;5032970;28;20248;-58
2022/07/29 14:04:45;;;;;;;5.25;2.17;;;26.90;98.60;;;;;;5032504;28;20653;-59